sensor_id;sensor_type;location;lat;lon;timestamp;P1;durP1;ratioP1;P2;durP2;ratioP2
6751;SDS011;3413;47.680;9.166;2023-04-30T00:00:42;4.80;;;2.40;;
6751;SDS011;3413;47.680;9.166;2023-04-30T00:05:44;4.33;;;2.27;;
6751;SDS011;3413;47.680;9.166;2023-04-30T00:10:46;5.70;;;2.40;;
6751;SDS011;3413;47.680;9.166;2023-04-30T00:15:48;5.23;;;2.53;;
6751;SDS011;3413;47.680;9.166;2023-04-30T00:20:49;3.90;;;2.30;;
6751;SDS011;3413;47.680;9.166;2023-04-30T00:25:53;6.03;;;2.80;;
6751;SDS011;3413;47.680;9.166;2023-04-30T00:30:55;9.70;;;2.90;;
6751;SDS011;3413;47.680;9.166;2023-04-30T00:35:58;7.87;;;3.20;;
6751;SDS011;3413;47.680;9.166;2023-04-30T00:41:00;5.73;;;2.70;;
6751;SDS011;3413;47.680;9.166;2023-04-30T00:46:02;7.33;;;2.90;;
6751;SDS011;3413;47.680;9.166;2023-04-30T00:51:05;9.10;;;3.27;;
6751;SDS011;3413;47.680;9.166;2023-04-30T00:56:08;5.73;;;2.53;;
6751;SDS011;3413;47.680;9.166;2023-04-30T01:01:11;6.93;;;2.80;;
6751;SDS011;3413;47.680;9.166;2023-04-30T01:06:13;6.17;;;3.00;;
6751;SDS011;3413;47.680;9.166;2023-04-30T01:11:16;5.17;;;2.67;;
6751;SDS011;3413;47.680;9.166;2023-04-30T01:16:42;6.97;;;2.23;;
6751;SDS011;3413;47.680;9.166;2023-04-30T01:21:51;6.00;;;2.40;;
6751;SDS011;3413;47.680;9.166;2023-04-30T01:27:13;4.67;;;2.47;;
6751;SDS011;3413;47.680;9.166;2023-04-30T01:32:26;8.00;;;3.07;;
6751;SDS011;3413;47.680;9.166;2023-04-30T01:48:45;15.47;;;3.50;;
6751;SDS011;3413;47.680;9.166;2023-04-30T01:54:26;6.37;;;2.60;;
6751;SDS011;3413;47.680;9.166;2023-04-30T01:59:34;5.43;;;2.80;;
6751;SDS011;3413;47.680;9.166;2023-04-30T02:04:38;6.50;;;3.40;;
6751;SDS011;3413;47.680;9.166;2023-04-30T02:09:40;4.83;;;2.60;;
6751;SDS011;3413;47.680;9.166;2023-04-30T02:14:42;10.53;;;3.23;;
6751;SDS011;3413;47.680;9.166;2023-04-30T02:19:44;7.80;;;3.47;;
6751;SDS011;3413;47.680;9.166;2023-04-30T02:24:46;8.80;;;3.37;;
6751;SDS011;3413;47.680;9.166;2023-04-30T02:29:48;7.93;;;2.97;;
6751;SDS011;3413;47.680;9.166;2023-04-30T02:34:50;5.70;;;2.77;;
6751;SDS011;3413;47.680;9.166;2023-04-30T02:39:52;6.53;;;2.63;;
6751;SDS011;3413;47.680;9.166;2023-04-30T02:44:55;8.80;;;2.90;;
6751;SDS011;3413;47.680;9.166;2023-04-30T02:49:57;5.70;;;2.80;;
6751;SDS011;3413;47.680;9.166;2023-04-30T02:54:59;7.00;;;3.43;;
6751;SDS011;3413;47.680;9.166;2023-04-30T03:00:01;7.47;;;3.40;;
6751;SDS011;3413;47.680;9.166;2023-04-30T03:05:03;6.30;;;3.13;;
6751;SDS011;3413;47.680;9.166;2023-04-30T03:10:06;8.83;;;3.40;;
6751;SDS011;3413;47.680;9.166;2023-04-30T03:15:08;5.33;;;2.60;;
6751;SDS011;3413;47.680;9.166;2023-04-30T03:20:11;6.00;;;2.40;;
6751;SDS011;3413;47.680;9.166;2023-04-30T03:25:13;8.90;;;2.90;;
6751;SDS011;3413;47.680;9.166;2023-04-30T03:30:15;9.20;;;2.50;;
6751;SDS011;3413;47.680;9.166;2023-04-30T03:35:17;6.57;;;2.80;;
6751;SDS011;3413;47.680;9.166;2023-04-30T03:40:19;4.90;;;2.13;;
6751;SDS011;3413;47.680;9.166;2023-04-30T03:45:21;5.27;;;2.57;;
6751;SDS011;3413;47.680;9.166;2023-04-30T03:50:23;5.97;;;2.70;;
6751;SDS011;3413;47.680;9.166;2023-04-30T03:55:25;6.90;;;3.30;;
6751;SDS011;3413;47.680;9.166;2023-04-30T04:00:27;5.93;;;2.47;;
6751;SDS011;3413;47.680;9.166;2023-04-30T04:05:29;7.73;;;2.67;;
6751;SDS011;3413;47.680;9.166;2023-04-30T04:10:31;6.63;;;3.03;;
6751;SDS011;3413;47.680;9.166;2023-04-30T04:15:34;5.40;;;2.60;;
6751;SDS011;3413;47.680;9.166;2023-04-30T04:20:36;7.10;;;2.30;;
6751;SDS011;3413;47.680;9.166;2023-04-30T04:25:38;5.03;;;2.40;;
6751;SDS011;3413;47.680;9.166;2023-04-30T04:30:42;6.00;;;2.73;;
6751;SDS011;3413;47.680;9.166;2023-04-30T04:35:44;6.10;;;2.97;;
6751;SDS011;3413;47.680;9.166;2023-04-30T04:40:52;10.20;;;3.40;;
6751;SDS011;3413;47.680;9.166;2023-04-30T04:45:56;6.10;;;3.33;;
6751;SDS011;3413;47.680;9.166;2023-04-30T04:50:58;7.17;;;2.70;;
6751;SDS011;3413;47.680;9.166;2023-04-30T04:56:00;6.40;;;2.77;;
6751;SDS011;3413;47.680;9.166;2023-04-30T05:01:02;7.37;;;3.30;;
6751;SDS011;3413;47.680;9.166;2023-04-30T05:06:06;7.23;;;3.47;;
6751;SDS011;3413;47.680;9.166;2023-04-30T05:11:08;5.80;;;3.30;;
6751;SDS011;3413;47.680;9.166;2023-04-30T05:16:10;7.40;;;3.43;;
6751;SDS011;3413;47.680;9.166;2023-04-30T05:21:12;7.27;;;3.33;;
6751;SDS011;3413;47.680;9.166;2023-04-30T05:26:15;6.37;;;3.90;;
6751;SDS011;3413;47.680;9.166;2023-04-30T05:31:17;5.90;;;3.07;;
6751;SDS011;3413;47.680;9.166;2023-04-30T05:36:21;8.13;;;3.13;;
6751;SDS011;3413;47.680;9.166;2023-04-30T05:41:24;5.60;;;3.33;;
6751;SDS011;3413;47.680;9.166;2023-04-30T05:46:26;6.20;;;2.77;;
6751;SDS011;3413;47.680;9.166;2023-04-30T05:51:28;7.40;;;3.00;;
6751;SDS011;3413;47.680;9.166;2023-04-30T05:56:31;7.00;;;3.40;;
6751;SDS011;3413;47.680;9.166;2023-04-30T06:01:33;7.07;;;3.30;;
6751;SDS011;3413;47.680;9.166;2023-04-30T06:06:35;8.30;;;3.57;;
6751;SDS011;3413;47.680;9.166;2023-04-30T06:11:38;8.70;;;3.23;;
6751;SDS011;3413;47.680;9.166;2023-04-30T06:16:43;6.40;;;3.37;;
6751;SDS011;3413;47.680;9.166;2023-04-30T06:21:45;7.07;;;3.20;;
6751;SDS011;3413;47.680;9.166;2023-04-30T06:26:48;7.37;;;3.97;;
6751;SDS011;3413;47.680;9.166;2023-04-30T06:31:50;6.23;;;3.50;;
6751;SDS011;3413;47.680;9.166;2023-04-30T06:36:52;7.57;;;3.50;;
6751;SDS011;3413;47.680;9.166;2023-04-30T06:41:54;19.83;;;4.40;;
6751;SDS011;3413;47.680;9.166;2023-04-30T06:46:57;11.47;;;3.70;;
6751;SDS011;3413;47.680;9.166;2023-04-30T06:51:59;10.87;;;3.90;;
6751;SDS011;3413;47.680;9.166;2023-04-30T06:57:01;11.30;;;4.10;;
6751;SDS011;3413;47.680;9.166;2023-04-30T07:02:03;6.30;;;3.40;;
6751;SDS011;3413;47.680;9.166;2023-04-30T07:07:06;7.70;;;3.77;;
6751;SDS011;3413;47.680;9.166;2023-04-30T07:12:11;7.57;;;3.40;;
6751;SDS011;3413;47.680;9.166;2023-04-30T07:17:14;7.80;;;3.23;;
6751;SDS011;3413;47.680;9.166;2023-04-30T07:22:16;7.27;;;3.93;;
6751;SDS011;3413;47.680;9.166;2023-04-30T07:27:18;9.07;;;3.80;;
6751;SDS011;3413;47.680;9.166;2023-04-30T07:32:20;5.57;;;3.70;;
6751;SDS011;3413;47.680;9.166;2023-04-30T07:37:22;6.90;;;3.40;;
6751;SDS011;3413;47.680;9.166;2023-04-30T07:42:24;6.90;;;3.70;;
6751;SDS011;3413;47.680;9.166;2023-04-30T07:47:26;6.37;;;3.37;;
6751;SDS011;3413;47.680;9.166;2023-04-30T07:52:29;4.80;;;3.30;;
6751;SDS011;3413;47.680;9.166;2023-04-30T07:57:31;7.70;;;3.50;;
6751;SDS011;3413;47.680;9.166;2023-04-30T08:02:33;6.80;;;3.30;;
6751;SDS011;3413;47.680;9.166;2023-04-30T08:07:35;7.90;;;3.50;;
6751;SDS011;3413;47.680;9.166;2023-04-30T08:12:37;6.77;;;3.47;;
6751;SDS011;3413;47.680;9.166;2023-04-30T08:17:39;7.80;;;3.30;;
6751;SDS011;3413;47.680;9.166;2023-04-30T08:22:45;4.50;;;2.60;;
6751;SDS011;3413;47.680;9.166;2023-04-30T08:27:47;4.77;;;2.80;;
6751;SDS011;3413;47.680;9.166;2023-04-30T08:32:49;3.83;;;2.40;;
6751;SDS011;3413;47.680;9.166;2023-04-30T08:37:57;4.60;;;2.33;;
6751;SDS011;3413;47.680;9.166;2023-04-30T08:43:07;3.93;;;2.23;;
6751;SDS011;3413;47.680;9.166;2023-04-30T08:48:14;4.17;;;2.10;;
6751;SDS011;3413;47.680;9.166;2023-04-30T08:53:19;4.03;;;2.17;;
6751;SDS011;3413;47.680;9.166;2023-04-30T08:58:25;2.93;;;1.70;;
6751;SDS011;3413;47.680;9.166;2023-04-30T09:03:27;2.80;;;1.83;;
6751;SDS011;3413;47.680;9.166;2023-04-30T09:08:42;3.47;;;1.90;;
6751;SDS011;3413;47.680;9.166;2023-04-30T09:13:48;4.50;;;1.73;;
6751;SDS011;3413;47.680;9.166;2023-04-30T09:18:53;3.37;;;2.03;;
6751;SDS011;3413;47.680;9.166;2023-04-30T09:28:58;7.20;;;2.00;;
6751;SDS011;3413;47.680;9.166;2023-04-30T09:34:01;2.80;;;1.80;;
6751;SDS011;3413;47.680;9.166;2023-04-30T09:39:10;6.20;;;2.27;;
6751;SDS011;3413;47.680;9.166;2023-04-30T09:44:29;3.77;;;1.90;;
6751;SDS011;3413;47.680;9.166;2023-04-30T09:49:33;3.57;;;1.40;;
6751;SDS011;3413;47.680;9.166;2023-04-30T09:54:38;4.23;;;2.47;;
6751;SDS011;3413;47.680;9.166;2023-04-30T09:59:42;3.80;;;1.90;;
6751;SDS011;3413;47.680;9.166;2023-04-30T10:04:57;2.93;;;1.70;;
6751;SDS011;3413;47.680;9.166;2023-04-30T10:10:03;3.90;;;2.00;;
6751;SDS011;3413;47.680;9.166;2023-04-30T10:15:09;3.37;;;1.53;;
6751;SDS011;3413;47.680;9.166;2023-04-30T10:20:25;3.33;;;1.73;;
6751;SDS011;3413;47.680;9.166;2023-04-30T10:25:28;3.13;;;1.97;;
6751;SDS011;3413;47.680;9.166;2023-04-30T10:30:30;3.97;;;1.80;;
6751;SDS011;3413;47.680;9.166;2023-04-30T10:35:34;2.40;;;1.50;;
6751;SDS011;3413;47.680;9.166;2023-04-30T10:41:00;2.97;;;1.97;;
6751;SDS011;3413;47.680;9.166;2023-04-30T10:46:03;2.53;;;1.67;;
6751;SDS011;3413;47.680;9.166;2023-04-30T10:51:05;3.60;;;1.73;;
6751;SDS011;3413;47.680;9.166;2023-04-30T10:56:09;2.03;;;1.53;;
6751;SDS011;3413;47.680;9.166;2023-04-30T11:01:13;4.07;;;1.43;;
6751;SDS011;3413;47.680;9.166;2023-04-30T11:06:17;5.23;;;1.63;;
6751;SDS011;3413;47.680;9.166;2023-04-30T11:11:23;3.17;;;1.43;;
6751;SDS011;3413;47.680;9.166;2023-04-30T11:16:29;2.37;;;1.50;;
6751;SDS011;3413;47.680;9.166;2023-04-30T11:21:32;3.30;;;1.80;;
6751;SDS011;3413;47.680;9.166;2023-04-30T11:32:08;3.63;;;1.80;;
6751;SDS011;3413;47.680;9.166;2023-04-30T11:37:11;3.20;;;1.83;;
6751;SDS011;3413;47.680;9.166;2023-04-30T11:42:17;3.10;;;1.70;;
6751;SDS011;3413;47.680;9.166;2023-04-30T11:47:19;4.30;;;2.00;;
6751;SDS011;3413;47.680;9.166;2023-04-30T11:52:24;2.17;;;1.40;;
6751;SDS011;3413;47.680;9.166;2023-04-30T11:57:26;3.03;;;1.90;;
6751;SDS011;3413;47.680;9.166;2023-04-30T12:02:35;2.30;;;1.40;;
6751;SDS011;3413;47.680;9.166;2023-04-30T12:07:38;2.20;;;1.20;;
6751;SDS011;3413;47.680;9.166;2023-04-30T12:12:41;2.53;;;1.47;;
6751;SDS011;3413;47.680;9.166;2023-04-30T12:17:45;3.27;;;1.53;;
6751;SDS011;3413;47.680;9.166;2023-04-30T12:22:47;2.70;;;1.20;;
6751;SDS011;3413;47.680;9.166;2023-04-30T12:27:53;3.40;;;1.90;;
6751;SDS011;3413;47.680;9.166;2023-04-30T12:32:58;5.13;;;1.43;;
6751;SDS011;3413;47.680;9.166;2023-04-30T12:38:03;2.80;;;1.50;;
6751;SDS011;3413;47.680;9.166;2023-04-30T12:43:06;4.03;;;1.30;;
6751;SDS011;3413;47.680;9.166;2023-04-30T12:48:09;3.13;;;1.50;;
6751;SDS011;3413;47.680;9.166;2023-04-30T12:53:11;4.67;;;1.50;;
6751;SDS011;3413;47.680;9.166;2023-04-30T12:58:13;2.47;;;1.47;;
6751;SDS011;3413;47.680;9.166;2023-04-30T13:03:18;10.37;;;3.17;;
6751;SDS011;3413;47.680;9.166;2023-04-30T13:08:23;2.37;;;1.40;;
6751;SDS011;3413;47.680;9.166;2023-04-30T13:13:25;3.10;;;1.70;;
6751;SDS011;3413;47.680;9.166;2023-04-30T13:18:27;2.13;;;1.27;;
6751;SDS011;3413;47.680;9.166;2023-04-30T13:23:29;2.23;;;1.40;;
6751;SDS011;3413;47.680;9.166;2023-04-30T13:28:41;3.83;;;1.77;;
6751;SDS011;3413;47.680;9.166;2023-04-30T13:33:43;2.60;;;1.33;;
6751;SDS011;3413;47.680;9.166;2023-04-30T13:38:45;1.90;;;1.40;;
6751;SDS011;3413;47.680;9.166;2023-04-30T13:43:47;2.10;;;1.30;;
6751;SDS011;3413;47.680;9.166;2023-04-30T13:48:49;3.47;;;1.57;;
6751;SDS011;3413;47.680;9.166;2023-04-30T13:53:53;2.30;;;1.70;;
6751;SDS011;3413;47.680;9.166;2023-04-30T13:58:55;4.10;;;2.03;;
6751;SDS011;3413;47.680;9.166;2023-04-30T14:03:57;2.10;;;1.23;;
6751;SDS011;3413;47.680;9.166;2023-04-30T14:08:59;8.47;;;2.73;;
6751;SDS011;3413;47.680;9.166;2023-04-30T14:14:02;4.20;;;1.57;;
6751;SDS011;3413;47.680;9.166;2023-04-30T14:19:03;3.67;;;1.33;;
6751;SDS011;3413;47.680;9.166;2023-04-30T14:24:06;1.70;;;1.17;;
6751;SDS011;3413;47.680;9.166;2023-04-30T14:29:09;3.83;;;1.50;;
6751;SDS011;3413;47.680;9.166;2023-04-30T14:34:11;2.63;;;1.60;;
6751;SDS011;3413;47.680;9.166;2023-04-30T14:39:13;2.57;;;1.73;;
6751;SDS011;3413;47.680;9.166;2023-04-30T14:44:15;3.27;;;1.83;;
6751;SDS011;3413;47.680;9.166;2023-04-30T14:49:18;2.50;;;1.73;;
6751;SDS011;3413;47.680;9.166;2023-04-30T14:54:20;2.00;;;1.43;;
6751;SDS011;3413;47.680;9.166;2023-04-30T14:59:22;4.10;;;1.43;;
6751;SDS011;3413;47.680;9.166;2023-04-30T15:04:24;2.57;;;1.53;;
6751;SDS011;3413;47.680;9.166;2023-04-30T15:09:26;1.97;;;1.33;;
6751;SDS011;3413;47.680;9.166;2023-04-30T15:14:28;2.10;;;1.40;;
6751;SDS011;3413;47.680;9.166;2023-04-30T15:19:29;15.37;;;7.40;;
6751;SDS011;3413;47.680;9.166;2023-04-30T15:24:31;2.20;;;1.50;;
6751;SDS011;3413;47.680;9.166;2023-04-30T15:29:34;4.67;;;1.73;;
6751;SDS011;3413;47.680;9.166;2023-04-30T15:34:37;3.03;;;1.50;;
6751;SDS011;3413;47.680;9.166;2023-04-30T15:39:39;4.13;;;1.60;;
6751;SDS011;3413;47.680;9.166;2023-04-30T15:44:41;2.60;;;1.77;;
6751;SDS011;3413;47.680;9.166;2023-04-30T15:49:42;2.03;;;1.53;;
6751;SDS011;3413;47.680;9.166;2023-04-30T15:54:44;6.33;;;1.50;;
6751;SDS011;3413;47.680;9.166;2023-04-30T15:59:46;1.80;;;1.30;;
6751;SDS011;3413;47.680;9.166;2023-04-30T16:04:48;3.93;;;2.30;;
6751;SDS011;3413;47.680;9.166;2023-04-30T16:09:50;2.43;;;1.37;;
6751;SDS011;3413;47.680;9.166;2023-04-30T16:14:52;2.03;;;1.20;;
6751;SDS011;3413;47.680;9.166;2023-04-30T16:19:54;2.80;;;1.80;;
6751;SDS011;3413;47.680;9.166;2023-04-30T16:24:56;3.73;;;1.93;;
6751;SDS011;3413;47.680;9.166;2023-04-30T16:29:58;3.83;;;1.73;;
6751;SDS011;3413;47.680;9.166;2023-04-30T16:35:01;3.43;;;2.00;;
6751;SDS011;3413;47.680;9.166;2023-04-30T16:40:03;1.80;;;1.30;;
6751;SDS011;3413;47.680;9.166;2023-04-30T16:45:07;2.40;;;1.60;;
6751;SDS011;3413;47.680;9.166;2023-04-30T16:50:09;2.23;;;1.60;;
6751;SDS011;3413;47.680;9.166;2023-04-30T16:55:11;6.47;;;1.77;;
6751;SDS011;3413;47.680;9.166;2023-04-30T17:00:13;5.90;;;2.10;;
6751;SDS011;3413;47.680;9.166;2023-04-30T17:05:19;3.77;;;1.93;;
6751;SDS011;3413;47.680;9.166;2023-04-30T17:10:21;3.10;;;1.60;;
6751;SDS011;3413;47.680;9.166;2023-04-30T17:15:24;3.83;;;2.03;;
6751;SDS011;3413;47.680;9.166;2023-04-30T17:20:26;2.50;;;1.63;;
6751;SDS011;3413;47.680;9.166;2023-04-30T17:25:28;3.40;;;1.90;;
6751;SDS011;3413;47.680;9.166;2023-04-30T17:30:32;2.37;;;1.33;;
6751;SDS011;3413;47.680;9.166;2023-04-30T17:35:34;2.63;;;1.37;;
6751;SDS011;3413;47.680;9.166;2023-04-30T17:40:36;4.17;;;1.83;;
6751;SDS011;3413;47.680;9.166;2023-04-30T17:45:38;1.83;;;1.40;;
6751;SDS011;3413;47.680;9.166;2023-04-30T17:50:40;3.50;;;1.60;;
6751;SDS011;3413;47.680;9.166;2023-04-30T17:55:42;3.13;;;2.10;;
6751;SDS011;3413;47.680;9.166;2023-04-30T18:00:45;2.33;;;1.40;;
6751;SDS011;3413;47.680;9.166;2023-04-30T18:05:50;2.80;;;1.60;;
6751;SDS011;3413;47.680;9.166;2023-04-30T18:10:52;3.20;;;1.70;;
6751;SDS011;3413;47.680;9.166;2023-04-30T18:15:54;17.13;;;1.53;;
6751;SDS011;3413;47.680;9.166;2023-04-30T18:20:56;2.30;;;1.73;;
6751;SDS011;3413;47.680;9.166;2023-04-30T18:26:00;3.80;;;1.70;;
6751;SDS011;3413;47.680;9.166;2023-04-30T18:31:02;3.83;;;1.73;;
6751;SDS011;3413;47.680;9.166;2023-04-30T18:36:04;2.40;;;1.70;;
6751;SDS011;3413;47.680;9.166;2023-04-30T18:41:07;2.87;;;1.50;;
6751;SDS011;3413;47.680;9.166;2023-04-30T18:46:09;6.07;;;1.90;;
6751;SDS011;3413;47.680;9.166;2023-04-30T18:51:11;3.70;;;1.70;;
6751;SDS011;3413;47.680;9.166;2023-04-30T18:56:13;2.60;;;1.70;;
6751;SDS011;3413;47.680;9.166;2023-04-30T19:01:16;4.10;;;1.93;;
6751;SDS011;3413;47.680;9.166;2023-04-30T19:06:21;4.70;;;2.00;;
6751;SDS011;3413;47.680;9.166;2023-04-30T19:11:23;2.73;;;1.90;;
6751;SDS011;3413;47.680;9.166;2023-04-30T19:16:26;3.00;;;1.90;;
6751;SDS011;3413;47.680;9.166;2023-04-30T19:21:28;2.40;;;1.57;;
6751;SDS011;3413;47.680;9.166;2023-04-30T19:26:31;4.27;;;1.90;;
6751;SDS011;3413;47.680;9.166;2023-04-30T19:31:33;3.13;;;1.57;;
6751;SDS011;3413;47.680;9.166;2023-04-30T19:36:35;2.33;;;1.60;;
6751;SDS011;3413;47.680;9.166;2023-04-30T19:41:37;2.60;;;1.63;;
6751;SDS011;3413;47.680;9.166;2023-04-30T19:46:40;2.43;;;1.70;;
6751;SDS011;3413;47.680;9.166;2023-04-30T19:51:42;2.40;;;1.43;;
6751;SDS011;3413;47.680;9.166;2023-04-30T19:56:44;3.33;;;2.03;;
6751;SDS011;3413;47.680;9.166;2023-04-30T20:01:46;3.50;;;2.00;;
6751;SDS011;3413;47.680;9.166;2023-04-30T20:06:49;3.23;;;1.90;;
6751;SDS011;3413;47.680;9.166;2023-04-30T20:11:57;7.33;;;2.10;;
6751;SDS011;3413;47.680;9.166;2023-04-30T20:17:00;3.97;;;1.77;;
6751;SDS011;3413;47.680;9.166;2023-04-30T20:22:02;3.90;;;1.70;;
6751;SDS011;3413;47.680;9.166;2023-04-30T20:27:04;3.70;;;1.90;;
6751;SDS011;3413;47.680;9.166;2023-04-30T20:32:07;2.90;;;1.93;;
6751;SDS011;3413;47.680;9.166;2023-04-30T20:37:10;2.70;;;1.77;;
6751;SDS011;3413;47.680;9.166;2023-04-30T20:42:12;2.80;;;1.60;;
6751;SDS011;3413;47.680;9.166;2023-04-30T20:47:14;3.07;;;1.60;;
6751;SDS011;3413;47.680;9.166;2023-04-30T20:52:16;3.20;;;2.13;;
6751;SDS011;3413;47.680;9.166;2023-04-30T20:57:19;3.03;;;1.97;;
6751;SDS011;3413;47.680;9.166;2023-04-30T21:02:21;3.03;;;1.80;;
6751;SDS011;3413;47.680;9.166;2023-04-30T21:07:23;3.70;;;2.13;;
6751;SDS011;3413;47.680;9.166;2023-04-30T21:12:25;6.83;;;2.03;;
6751;SDS011;3413;47.680;9.166;2023-04-30T21:17:30;3.10;;;1.67;;
6751;SDS011;3413;47.680;9.166;2023-04-30T21:22:32;5.30;;;2.30;;
6751;SDS011;3413;47.680;9.166;2023-04-30T21:27:35;3.53;;;1.90;;
6751;SDS011;3413;47.680;9.166;2023-04-30T21:32:37;2.23;;;1.53;;
6751;SDS011;3413;47.680;9.166;2023-04-30T21:37:40;3.37;;;2.07;;
6751;SDS011;3413;47.680;9.166;2023-04-30T21:42:42;3.43;;;1.63;;
6751;SDS011;3413;47.680;9.166;2023-04-30T21:47:45;4.00;;;2.13;;
6751;SDS011;3413;47.680;9.166;2023-04-30T21:52:48;2.70;;;1.80;;
6751;SDS011;3413;47.680;9.166;2023-04-30T21:57:54;3.70;;;1.80;;
6751;SDS011;3413;47.680;9.166;2023-04-30T22:02:56;3.53;;;1.87;;
6751;SDS011;3413;47.680;9.166;2023-04-30T22:07:58;3.03;;;1.57;;
6751;SDS011;3413;47.680;9.166;2023-04-30T22:13:00;4.10;;;1.60;;
6751;SDS011;3413;47.680;9.166;2023-04-30T22:18:02;2.77;;;1.90;;
6751;SDS011;3413;47.680;9.166;2023-04-30T22:23:04;4.13;;;2.30;;
6751;SDS011;3413;47.680;9.166;2023-04-30T22:28:06;2.63;;;1.90;;
6751;SDS011;3413;47.680;9.166;2023-04-30T22:33:10;6.43;;;2.37;;
6751;SDS011;3413;47.680;9.166;2023-04-30T22:38:12;3.10;;;1.80;;
6751;SDS011;3413;47.680;9.166;2023-04-30T22:43:14;4.23;;;2.30;;
6751;SDS011;3413;47.680;9.166;2023-04-30T22:48:16;4.47;;;2.40;;
6751;SDS011;3413;47.680;9.166;2023-04-30T22:53:18;4.10;;;2.30;;
6751;SDS011;3413;47.680;9.166;2023-04-30T22:58:21;3.20;;;2.03;;
6751;SDS011;3413;47.680;9.166;2023-04-30T23:03:23;4.90;;;2.20;;
6751;SDS011;3413;47.680;9.166;2023-04-30T23:08:25;3.50;;;1.90;;
6751;SDS011;3413;47.680;9.166;2023-04-30T23:13:27;18.60;;;2.20;;
6751;SDS011;3413;47.680;9.166;2023-04-30T23:18:29;4.30;;;2.50;;
6751;SDS011;3413;47.680;9.166;2023-04-30T23:23:32;3.30;;;1.97;;
6751;SDS011;3413;47.680;9.166;2023-04-30T23:28:34;3.50;;;2.20;;
6751;SDS011;3413;47.680;9.166;2023-04-30T23:33:38;5.80;;;2.10;;
6751;SDS011;3413;47.680;9.166;2023-04-30T23:38:40;3.17;;;1.97;;
6751;SDS011;3413;47.680;9.166;2023-04-30T23:43:43;2.60;;;1.90;;
6751;SDS011;3413;47.680;9.166;2023-04-30T23:48:47;3.17;;;2.00;;
6751;SDS011;3413;47.680;9.166;2023-04-30T23:53:50;4.70;;;2.17;;
6751;SDS011;3413;47.680;9.166;2023-04-30T23:58:52;5.47;;;1.77;;
